Time;durP1;ratioP1;P1;durP2;ratioP2;P2;SDS_P1;SDS_P2;PMS_P1;PMS_P2;Temp;Humidity;BMP_temperature;BMP_pressure;BME280_temperature;BME280_humidity;BME280_pressure;Samples;Min_cycle;Max_cycle;Signal;HPM_P1;HPM_P2
2021/06/15 00:00:12;;;;;;;2.40;1.00;;;;;;;28.00;22.65;98561.84;5059279;28;20056;-86
2021/06/15 00:02:38;;;;;;;1.00;0.70;;;;;;;27.61;23.12;98562.19;5060266;28;20098;-87
2021/06/15 00:05:06;;;;;;;1.48;0.80;;;;;;;27.60;23.41;98555.75;5052845;28;20029;-87
2021/06/15 00:07:32;;;;;;;1.88;0.93;;;;;;;27.29;23.96;98551.75;5053077;28;20037;-87
2021/06/15 00:09:58;;;;;;;1.92;0.68;;;;;;;27.18;24.03;98549.25;5057517;28;20032;-87
2021/06/15 00:12:24;;;;;;;1.80;0.70;;;;;;;27.27;23.75;98555.03;5059963;28;20032;-88
2021/06/15 00:14:50;;;;;;;1.98;0.90;;;;;;;27.69;23.09;98550.25;5052277;28;20028;-87
2021/06/15 00:17:16;;;;;;;0.75;0.60;;;;;;;28.16;21.95;98546.84;5057348;28;20121;-86
2021/06/15 00:19:42;;;;;;;1.00;0.52;;;;;;;28.55;20.99;98552.81;5059874;28;20033;-86
2021/06/15 00:22:09;;;;;;;1.27;0.75;;;;;;;28.80;20.78;98552.03;5053793;28;20495;-86
2021/06/15 00:24:35;;;;;;;1.00;0.60;;;;;;;28.46;20.81;98551.94;5059930;28;20382;-85
2021/06/15 00:27:01;;;;;;;1.88;0.70;;;;;;;28.33;21.21;98554.78;5056077;28;20031;-85
2021/06/15 00:29:27;;;;;;;1.35;0.60;;;;;;;28.10;21.55;98545.84;5064397;28;20175;-86
2021/06/15 00:31:53;;;;;;;1.23;0.60;;;;;;;28.29;21.00;98547.63;5065759;28;20173;-86
2021/06/15 00:34:19;;;;;;;1.00;0.65;;;;;;;28.41;20.94;98546.84;5058021;28;20484;-86
2021/06/15 00:36:45;;;;;;;3.63;0.88;;;;;;;28.27;21.11;98553.75;5056660;28;20043;-86
2021/06/15 00:39:11;;;;;;;1.42;0.90;;;;;;;28.07;21.89;98558.81;5067775;28;20052;-86
2021/06/15 00:41:37;;;;;;;1.52;0.75;;;;;;;27.83;22.11;98558.28;5056971;28;20036;-86
2021/06/15 00:44:03;;;;;;;2.55;0.73;;;;;;;28.03;21.58;98552.47;5060542;28;20032;-86
2021/06/15 00:46:29;;;;;;;2.15;0.70;;;;;;;28.39;21.05;98546.50;5057585;28;20033;-87
2021/06/15 00:48:56;;;;;;;1.35;0.85;;;;;;;28.24;21.19;98546.16;5059604;28;20029;-87
2021/06/15 00:51:22;;;;;;;0.95;0.80;;;;;;;27.87;21.35;98533.56;5058261;28;20435;-86
2021/06/15 00:53:49;;;;;;;2.38;0.60;;;;;;;27.80;21.33;98542.25;5063747;28;20040;-87
2021/06/15 00:56:15;;;;;;;4.45;0.60;;;;;;;27.94;21.67;98541.81;5096083;28;20025;-87
2021/06/15 00:58:41;;;;;;;1.02;0.60;;;;;;;28.12;21.25;98546.16;5066742;28;20439;-87
2021/06/15 01:01:07;;;;;;;1.05;0.60;;;;;;;28.22;20.94;98542.19;5055361;28;20037;-86
2021/06/15 01:03:34;;;;;;;0.68;0.65;;;;;;;28.13;21.19;98542.88;5058457;28;20032;-86
2021/06/15 01:06:07;;;;;;;1.00;0.75;;;;;;;28.12;21.03;98543.34;5056622;28;20111;-86
2021/06/15 01:08:54;;;;;;;1.77;0.88;;;;;;;28.13;21.02;98550.56;5066907;28;20067;-86
2021/06/15 01:12:06;;;;;;;1.17;0.80;;;;;;;27.70;21.39;98540.53;5062241;28;20056;-86
2021/06/15 01:14:52;;;;;;;0.85;0.60;;;;;;;27.05;23.09;98539.16;5041578;28;20063;-86
2021/06/15 01:17:27;;;;;;;1.17;0.70;;;;;;;26.80;23.74;98536.97;5059933;28;20036;-85
2021/06/15 01:20:07;;;;;;;1.58;0.70;;;;;;;26.95;22.44;98532.56;5061420;28;20108;-85
2021/06/15 01:23:04;;;;;;;0.80;0.70;;;;;;;27.00;22.65;98539.69;5057469;28;20391;-85
2021/06/15 01:25:45;;;;;;;0.93;0.73;;;;;;;27.23;22.92;98533.81;5062366;28;20039;-86
2021/06/15 01:28:35;;;;;;;1.58;0.77;;;;;;;26.76;22.63;98522.19;5056881;28;20436;-86
2021/06/15 01:31:13;;;;;;;2.10;0.63;;;;;;;26.54;23.79;98513.44;5068545;28;20051;-86
2021/06/15 01:33:43;;;;;;;0.63;0.50;;;;;;;26.86;22.60;98506.22;5067217;28;20066;-86
2021/06/15 01:36:13;;;;;;;2.28;0.63;;;;;;;27.19;22.40;98507.75;5058358;28;20063;-86
2021/06/15 01:38:43;;;;;;;0.90;0.60;;;;;;;27.46;22.08;98496.13;5062110;28;20085;-86
2021/06/15 01:41:18;;;;;;;0.95;0.68;;;;;;;27.69;21.07;98501.47;5065242;28;20032;-86
2021/06/15 01:43:49;;;;;;;1.05;0.98;;;;;;;27.75;21.67;98506.09;5062463;28;20182;-86
2021/06/15 01:46:20;;;;;;;1.25;0.70;;;;;;;27.44;21.45;98505.03;5053288;28;20068;-85
2021/06/15 01:48:59;;;;;;;;;;;;;;;27.30;23.21;98505.41;5060821;28;20037;-85
2021/06/15 01:51:26;;;;;;;0.70;0.70;;;;;;;27.43;21.95;98506.28;5059873;28;19916;-86
2021/06/15 01:54:10;;;;;;;0.90;0.60;;;;;;;27.53;21.41;98502.34;5061353;28;20035;-86
2021/06/15 01:56:41;;;;;;;1.30;0.63;;;;;;;27.78;21.29;98510.88;5058136;28;20078;-86
2021/06/15 01:59:13;;;;;;;1.20;0.50;;;;;;;27.98;20.50;98505.78;5068234;28;20032;-85
2021/06/15 02:01:45;;;;;;;1.92;0.80;;;;;;;27.74;21.03;98507.38;5067809;28;20386;-86
2021/06/15 02:04:12;;;;;;;0.80;0.40;;;;;;;27.53;20.87;98505.19;5054620;28;20064;-86
2021/06/15 02:06:43;;;;;;;0.95;0.65;;;;;;;27.60;21.80;98504.16;5063419;28;20063;-86
2021/06/15 02:09:11;;;;;;;1.38;0.68;;;;;;;27.83;21.06;98504.66;5061633;28;20025;-86
2021/06/15 02:11:38;;;;;;;2.05;0.65;;;;;;;27.90;21.10;98498.81;5061461;28;20037;-86
2021/06/15 02:14:08;;;;;;;0.98;0.60;;;;;;;28.05;20.70;98493.53;5054818;28;20029;-86
2021/06/15 02:16:36;;;;;;;0.77;0.40;;;;;;;28.14;20.52;98502.13;5064791;28;20079;-86
2021/06/15 02:19:02;;;;;;;0.73;0.50;;;;;;;27.75;21.01;98500.47;5057490;28;20040;-86
2021/06/15 02:21:32;;;;;;;1.27;0.73;;;;;;;27.51;21.13;98485.09;5069029;28;20033;-86
2021/06/15 02:24:00;;;;;;;1.13;0.60;;;;;;;27.61;20.78;98486.00;5055891;28;20065;-86
2021/06/15 02:26:29;;;;;;;1.13;0.60;;;;;;;27.57;21.35;98483.28;5054310;28;20473;-85
2021/06/15 02:28:55;;;;;;;1.42;0.60;;;;;;;27.11;22.14;98495.88;5054407;28;20041;-86
2021/06/15 02:31:31;;;;;;;1.02;0.40;;;;;;;26.78;22.37;98488.72;5059936;28;20118;-85
2021/06/15 02:34:06;;;;;;;1.45;0.70;;;;;;;26.70;22.57;98485.25;5058482;28;20396;-85
2021/06/15 02:36:34;;;;;;;1.63;0.60;;;;;;;26.99;22.07;98490.97;5064400;28;20027;-86
2021/06/15 02:39:09;;;;;;;0.98;0.32;;;;;;;27.48;21.62;98488.81;5064702;28;20150;-85
2021/06/15 02:41:39;;;;;;;0.40;0.40;;;;;;;27.77;21.09;98489.50;5056787;28;20021;-85
2021/06/15 02:44:08;;;;;;;0.97;0.50;;;;;;;27.40;21.47;98496.66;5053507;28;20029;-85
2021/06/15 02:46:36;;;;;;;1.17;0.70;;;;;;;27.03;21.71;98493.66;5055730;28;20511;-85
2021/06/15 02:49:08;;;;;;;0.90;0.50;;;;;;;26.90;21.79;98487.19;5059274;28;20510;-86
2021/06/15 02:51:42;;;;;;;1.17;0.47;;;;;;;27.17;21.79;98496.91;5063016;28;20037;-86
2021/06/15 02:54:10;;;;;;;1.02;0.50;;;;;;;27.47;21.38;98501.31;5065689;28;20025;-87
2021/06/15 02:56:41;;;;;;;1.20;0.60;;;;;;;27.58;20.95;98496.16;5060174;28;20028;-86
2021/06/15 02:59:07;;;;;;;;;;;;;;;27.65;21.84;98492.34;5055444;28;20400;-85
2021/06/15 03:01:33;;;;;;;0.70;0.60;;;;;;;27.96;20.61;98496.19;5059212;28;19913;-86
2021/06/15 03:04:01;;;;;;;1.08;0.82;;;;;;;27.59;20.74;98497.72;5054713;28;20033;-86
2021/06/15 03:06:27;;;;;;;1.02;0.60;;;;;;;27.02;21.57;98486.47;5056608;28;20036;-86
2021/06/15 03:08:53;;;;;;;2.88;0.65;;;;;;;26.71;22.08;98492.50;5063892;28;20031;-86
2021/06/15 03:11:23;;;;;;;1.02;0.52;;;;;;;26.99;21.42;98498.63;5059419;28;20068;-86
2021/06/15 03:14:06;;;;;;;1.55;0.50;;;;;;;27.46;20.87;98501.75;5053286;28;20028;-85
2021/06/15 03:16:34;;;;;;;0.70;0.70;;;;;;;27.92;20.62;98504.00;5055760;28;20033;-86
2021/06/15 03:19:22;;;;;;;0.80;0.57;;;;;;;28.06;20.77;98500.75;5054936;28;20067;-86
2021/06/15 03:22:05;;;;;;;1.98;0.65;;;;;;;27.63;21.23;98501.25;5055414;28;20128;-86
2021/06/15 03:24:36;;;;;;;1.48;0.50;;;;;;;27.43;21.71;98495.00;5054258;28;20036;-85
2021/06/15 03:27:05;;;;;;;0.95;0.52;;;;;;;27.48;22.12;98502.09;5052747;28;20039;-86
2021/06/15 03:29:37;;;;;;;1.20;0.80;;;;;;;27.76;22.03;98498.44;5055947;28;20585;-86
2021/06/15 03:32:11;;;;;;;0.60;0.50;;;;;;;27.99;21.57;98490.50;5057978;28;20032;-85
2021/06/15 03:34:47;;;;;;;1.20;0.40;;;;;;;28.84;21.09;98490.53;5053451;28;20414;-85
2021/06/15 03:37:24;;;;;;;1.35;0.60;;;;;;;29.52;21.60;98488.91;5058255;28;20397;-84
2021/06/15 03:39:52;;;;;;;0.80;0.57;;;;;;;29.61;21.57;98480.47;5056079;28;20048;-85
2021/06/15 03:42:22;;;;;;;1.00;0.60;;;;;;;29.88;22.08;98484.28;5053064;28;20033;-85
2021/06/15 03:44:55;;;;;;;1.38;0.57;;;;;;;30.69;22.20;98491.53;5055515;28;20021;-85
2021/06/15 03:47:24;;;;;;;0.77;0.63;;;;;;;31.44;21.29;98491.94;5061024;28;20040;-86
2021/06/15 03:49:54;;;;;;;1.02;0.70;;;;;;;31.79;20.46;98487.41;5059873;28;20035;-86
2021/06/15 03:52:27;;;;;;;2.13;0.90;;;;;;;32.07;20.96;98492.56;5061783;28;20078;-86
2021/06/15 03:54:55;;;;;;;0.85;0.80;;;;;;;32.10;19.97;98493.66;5055328;28;20548;-86
2021/06/15 03:57:26;;;;;;;0.65;0.65;;;;;;;32.36;19.60;98500.50;5054357;28;20179;-86
2021/06/15 03:59:54;;;;;;;;;;;;;;;32.30;19.38;98501.66;5063538;28;20123;-86
2021/06/15 04:02:22;;;;;;;0.80;0.80;;;;;;;32.03;19.99;98509.00;5052031;28;19912;-86
2021/06/15 04:04:50;;;;;;;1.27;0.75;;;;;;;31.99;20.84;98516.91;5053008;28;20029;-86
2021/06/15 04:07:19;;;;;;;2.78;0.70;;;;;;;32.39;19.56;98510.13;5063966;28;20087;-86
2021/06/15 04:09:49;;;;;;;1.00;0.90;;;;;;;32.64;19.69;98519.03;5054582;28;20099;-86
2021/06/15 04:12:16;;;;;;;1.25;0.70;;;;;;;31.98;20.12;98511.69;5056373;28;20499;-85
2021/06/15 04:14:47;;;;;;;1.00;0.75;;;;;;;31.73;20.68;98507.16;5051988;28;20033;-86
2021/06/15 04:17:22;;;;;;;1.25;0.80;;;;;;;31.95;21.40;98512.66;5053202;28;20119;-86
2021/06/15 04:19:55;;;;;;;4.40;0.90;;;;;;;32.40;20.83;98514.53;5059388;28;20420;-86
2021/06/15 04:22:22;;;;;;;1.05;0.77;;;;;;;32.48;20.82;98515.78;5067481;28;20047;-86
2021/06/15 04:24:51;;;;;;;0.73;0.70;;;;;;;32.21;20.84;98508.16;5064021;28;20032;-86
2021/06/15 04:27:25;;;;;;;1.27;1.17;;;;;;;32.12;21.07;98516.72;5065027;28;20033;-86
2021/06/15 04:29:54;;;;;;;4.18;2.08;;;;;;;32.34;21.10;98510.78;5064717;28;20530;-87
2021/06/15 04:32:31;;;;;;;2.17;0.80;;;;;;;32.61;20.45;98520.00;5054152;28;20086;-87
2021/06/15 04:35:00;;;;;;;1.02;0.73;;;;;;;33.05;20.17;98513.75;5051756;28;20025;-87
2021/06/15 04:37:29;;;;;;;1.17;0.88;;;;;;;33.35;20.57;98515.41;5058981;28;20049;-87
2021/06/15 04:40:09;;;;;;;1.40;0.82;;;;;;;33.57;20.49;98506.53;5063211;28;20048;-87
2021/06/15 04:42:51;;;;;;;1.27;0.73;;;;;;;33.54;20.33;98505.44;5061713;28;20033;-87
2021/06/15 04:45:23;;;;;;;2.97;0.68;;;;;;;33.65;20.59;98510.56;5054824;28;20036;-87
2021/06/15 04:48:01;;;;;;;1.60;0.98;;;;;;;33.63;20.91;98508.19;5059161;28;20037;-86
2021/06/15 04:50:29;;;;;;;2.17;0.65;;;;;;;33.78;21.23;98505.34;5060907;28;20070;-85
2021/06/15 04:52:57;;;;;;;0.80;0.60;;;;;;;33.79;20.33;98509.78;5054284;28;20061;-85
2021/06/15 04:55:28;;;;;;;1.38;0.95;;;;;;;33.74;20.22;98514.13;5052229;28;20025;-86
2021/06/15 04:57:56;;;;;;;0.80;0.80;;;;;;;33.62;20.60;98518.03;5054892;28;20029;-86
2021/06/15 05:00:24;;;;;;;3.78;0.90;;;;;;;33.73;19.67;98512.53;5052456;28;20400;-86
2021/06/15 05:02:51;;;;;;;0.80;0.60;;;;;;;33.92;20.28;98516.75;5057587;28;20504;-89
2021/06/15 05:05:19;;;;;;;1.02;0.52;;;;;;;34.13;20.79;98514.03;5065523;28;20028;-86
2021/06/15 05:07:52;;;;;;;0.93;0.50;;;;;;;34.59;19.75;98524.38;5058041;28;20461;-86
2021/06/15 05:10:20;;;;;;;0.82;0.57;;;;;;;34.99;19.81;98512.22;5062896;28;20040;-84
2021/06/15 05:12:47;;;;;;;1.08;0.65;;;;;;;35.35;19.28;98522.31;5067058;28;20036;-89
2021/06/15 05:15:15;;;;;;;0.52;0.40;;;;;;;35.71;18.66;98518.84;5067134;28;20037;-85
2021/06/15 05:17:45;;;;;;;2.70;0.43;;;;;;;35.82;18.14;98516.13;5067942;28;20078;-83
2021/06/15 05:20:12;;;;;;;0.63;0.40;;;;;;;35.77;18.29;98522.56;5066124;28;20140;-82
2021/06/15 05:22:45;;;;;;;0.60;0.50;;;;;;;35.87;18.39;98521.09;5071384;28;20279;-84
2021/06/15 05:25:15;;;;;;;1.05;0.52;;;;;;;36.24;17.56;98512.63;5065551;28;20028;-84
2021/06/15 05:27:41;;;;;;;2.23;0.60;;;;;;;36.31;17.52;98522.81;5056352;28;20040;-85
2021/06/15 05:30:09;;;;;;;1.00;0.60;;;;;;;36.34;18.79;98516.84;5064950;28;20370;-83
2021/06/15 05:32:35;;;;;;;0.40;0.40;;;;;;;36.47;18.41;98525.84;5056202;28;20556;-82
2021/06/15 05:35:02;;;;;;;0.70;0.40;;;;;;;36.59;17.30;98526.69;5053137;28;20039;-85
2021/06/15 05:37:29;;;;;;;0.52;0.45;;;;;;;36.68;18.33;98526.50;5059887;28;20079;-85
2021/06/15 05:39:56;;;;;;;0.75;0.43;;;;;;;36.32;16.79;98525.16;5062886;28;20052;-82
2021/06/15 05:42:23;;;;;;;0.63;0.40;;;;;;;35.65;17.73;98529.44;5067613;28;20369;-83
2021/06/15 05:44:49;;;;;;;0.47;0.40;;;;;;;35.47;17.82;98538.31;5060509;28;20029;-83
2021/06/15 05:47:15;;;;;;;1.17;0.50;;;;;;;35.32;17.72;98540.44;5058677;28;20505;-84
2021/06/15 05:49:41;;;;;;;0.40;0.40;;;;;;;35.66;18.86;98550.25;5053957;28;20393;-84
2021/06/15 05:52:11;;;;;;;0.65;0.40;;;;;;;36.18;18.47;98545.31;5057103;28;20568;-84
2021/06/15 05:54:38;;;;;;;0.40;0.35;;;;;;;36.73;17.37;98545.78;5059135;28;20039;-84
2021/06/15 05:57:05;;;;;;;3.22;0.65;;;;;;;36.98;17.79;98547.00;5072466;28;20048;-83
2021/06/15 05:59:31;;;;;;;2.78;0.60;;;;;;;37.27;17.76;98553.13;5073071;28;20044;-82
2021/06/15 06:01:57;;;;;;;1.83;0.60;;;;;;;37.16;17.31;98552.28;5065851;28;20028;-85
2021/06/15 06:04:32;;;;;;;0.57;0.50;;;;;;;37.16;17.75;98560.88;5071186;28;20036;-83
2021/06/15 06:09:43;;;;;;;2.28;0.55;;;;;;;37.30;17.84;98566.41;5057188;28;20052;-85
2021/06/15 06:12:10;;;;;;;0.93;0.47;;;;;;;37.49;17.73;98568.84;5071744;28;20033;-85
2021/06/15 06:14:37;;;;;;;1.85;0.68;;;;;;;37.42;16.30;98570.16;5065471;28;20116;-85
2021/06/15 06:17:06;;;;;;;3.63;0.63;;;;;;;37.07;17.78;98573.34;5071026;28;20029;-85
2021/06/15 06:19:32;;;;;;;2.58;0.50;;;;;;;37.42;17.83;98570.16;5072778;28;20102;-84
2021/06/15 06:21:58;;;;;;;1.13;0.70;;;;;;;37.77;17.18;98575.47;5074618;28;20037;-83
2021/06/15 06:24:25;;;;;;;1.60;0.80;;;;;;;37.64;16.45;98575.19;5073916;28;20043;-84
2021/06/15 06:26:51;;;;;;;1.00;0.60;;;;;;;36.88;16.08;98575.00;5074109;28;20032;-85
2021/06/15 06:29:19;;;;;;;1.70;0.88;;;;;;;35.46;18.25;98573.06;5058136;28;20044;-84
2021/06/15 06:31:45;;;;;;;1.83;0.80;;;;;;;35.20;18.21;98573.00;5091516;28;20035;-84
2021/06/15 06:34:11;;;;;;;1.67;1.10;;;;;;;34.95;18.97;98574.47;5055345;28;20033;-84
2021/06/15 06:36:37;;;;;;;2.10;1.15;;;;;;;34.76;19.35;98570.28;5057327;28;20029;-85
2021/06/15 06:39:05;;;;;;;1.73;0.90;;;;;;;34.92;19.23;98571.81;5057554;28;20039;-85
2021/06/15 06:41:33;;;;;;;3.33;0.73;;;;;;;35.90;18.60;98576.47;5056442;28;20025;-85
2021/06/15 06:43:59;;;;;;;3.60;1.13;;;;;;;35.99;17.42;98567.75;5068726;28;20040;-85
2021/06/15 06:46:25;;;;;;;1.98;0.93;;;;;;;36.11;18.28;98571.53;5056619;28;20538;-85
2021/06/15 06:48:51;;;;;;;3.15;1.20;;;;;;;35.95;17.82;98570.81;5064189;28;20411;-84
2021/06/15 06:51:19;;;;;;;6.03;1.25;;;;;;;36.26;18.57;98572.16;5072086;28;20102;-84
2021/06/15 06:53:45;;;;;;;1.00;0.80;;;;;;;35.88;18.13;98573.31;5063629;28;20036;-85
2021/06/15 06:56:12;;;;;;;1.52;0.95;;;;;;;36.02;18.50;98570.38;5053896;28;20033;-85
2021/06/15 06:58:38;;;;;;;3.50;1.00;;;;;;;36.26;17.61;98567.25;5053883;28;20090;-84
2021/06/15 07:01:04;;;;;;;1.10;0.77;;;;;;;36.48;18.26;98575.25;5079157;28;20466;-85
2021/06/15 07:03:30;;;;;;;2.45;0.73;;;;;;;37.02;17.94;98571.22;5069508;28;20067;-86
2021/06/15 07:05:57;;;;;;;1.45;0.65;;;;;;;37.23;17.06;98561.19;5069717;28;20038;-86
2021/06/15 07:08:24;;;;;;;1.85;0.60;;;;;;;37.58;16.93;98563.69;5068998;28;20052;-85
2021/06/15 07:10:50;;;;;;;1.08;0.60;;;;;;;37.84;16.29;98554.94;5061604;28;20492;-87
2021/06/15 07:13:17;;;;;;;1.75;0.60;;;;;;;37.84;16.57;98558.59;5061288;28;20518;-86
2021/06/15 07:15:43;;;;;;;0.65;0.65;;;;;;;38.09;16.22;98571.13;5068960;28;20577;-85
2021/06/15 07:18:09;;;;;;;1.33;0.60;;;;;;;38.01;16.79;98562.28;5060001;28;20032;-85
2021/06/15 07:20:35;;;;;;;1.48;0.88;;;;;;;37.28;17.10;98568.22;5068484;28;20028;-84
2021/06/15 07:23:01;;;;;;;1.23;0.63;;;;;;;37.59;16.64;98567.34;5062127;28;20444;-85
2021/06/15 07:25:28;;;;;;;0.75;0.68;;;;;;;37.75;16.43;98566.59;5064534;28;20099;-84
2021/06/15 07:27:54;;;;;;;0.70;0.70;;;;;;;37.47;17.38;98565.72;5061689;28;20099;-84
2021/06/15 07:30:22;;;;;;;0.77;0.52;;;;;;;37.78;17.36;98562.72;5068724;28;20040;-83
2021/06/15 07:32:50;;;;;;;2.20;0.70;;;;;;;38.24;16.02;98568.00;5067205;28;20037;-83
2021/06/15 07:35:16;;;;;;;1.08;0.50;;;;;;;37.94;16.22;98567.72;5037333;28;20119;-84
2021/06/15 07:37:42;;;;;;;1.08;0.60;;;;;;;37.91;15.31;98563.03;5056852;28;20040;-84
2021/06/15 07:40:09;;;;;;;1.13;0.50;;;;;;;37.85;15.64;98562.25;5064718;28;20527;-84
2021/06/15 07:42:35;;;;;;;1.75;0.63;;;;;;;38.21;16.40;98558.38;5056828;28;20376;-84
2021/06/15 07:45:02;;;;;;;0.68;0.60;;;;;;;38.58;15.39;98546.66;5062413;28;20407;-84
2021/06/15 07:47:28;;;;;;;0.65;0.40;;;;;;;38.79;15.39;98547.94;5053520;28;20082;-83
2021/06/15 07:49:54;;;;;;;0.45;0.30;;;;;;;38.79;14.48;98547.19;5064720;28;20032;-84
2021/06/15 07:52:27;;;;;;;0.68;0.30;;;;;;;38.57;14.74;98545.88;5072308;28;20032;-83
2021/06/15 07:54:53;;;;;;;0.38;0.22;;;;;;;38.72;14.53;98539.09;5062717;28;20031;-84
2021/06/15 07:57:19;;;;;;;1.48;0.63;;;;;;;38.21;14.92;98537.53;5072878;28;20078;-84
2021/06/15 07:59:45;;;;;;;0.93;0.28;;;;;;;37.53;15.42;98535.03;5070372;28;20476;-83
2021/06/15 08:02:12;;;;;;;0.63;0.30;;;;;;;37.80;15.89;98546.56;5072224;28;20037;-83
2021/06/15 08:04:38;;;;;;;0.35;0.20;;;;;;;38.41;14.68;98532.31;5051267;28;20058;-83
2021/06/15 08:07:04;;;;;;;1.17;0.25;;;;;;;38.18;15.13;98544.28;5068468;28;20044;-83
2021/06/15 08:09:30;;;;;;;0.30;0.30;;;;;;;38.62;15.12;98529.94;5063961;28;20511;-83
2021/06/15 08:11:56;;;;;;;0.35;0.30;;;;;;;38.94;14.26;98531.22;5061932;28;20441;-85
2021/06/15 08:14:22;;;;;;;0.60;0.30;;;;;;;37.70;14.78;98541.56;5060510;28;20067;-84
2021/06/15 08:16:48;;;;;;;0.30;0.30;;;;;;;36.87;17.05;98536.25;5066273;28;20075;-87
2021/06/15 08:19:14;;;;;;;0.40;0.30;;;;;;;34.98;18.15;98539.22;5050792;28;20069;-86
2021/06/15 08:21:40;;;;;;;0.80;0.30;;;;;;;36.28;16.11;98538.13;5053750;28;20044;-85
2021/06/15 08:24:09;;;;;;;2.05;0.30;;;;;;;36.19;17.31;98533.38;5060020;28;20081;-85
2021/06/15 08:26:35;;;;;;;0.77;0.50;;;;;;;36.58;15.86;98528.75;5070233;28;20067;-85
2021/06/15 08:29:01;;;;;;;1.27;0.60;;;;;;;35.76;17.12;98538.13;5073944;28;20064;-86
2021/06/15 08:31:27;;;;;;;0.30;0.20;;;;;;;36.54;17.01;98533.94;5058985;28;20044;-84
2021/06/15 08:33:53;;;;;;;0.57;0.38;;;;;;;37.49;15.21;98538.13;5065158;28;20512;-86
2021/06/15 08:36:19;;;;;;;0.98;0.65;;;;;;;37.60;14.79;98540.25;5061031;28;20130;-86
2021/06/15 08:38:45;;;;;;;0.40;0.30;;;;;;;37.35;15.03;98536.22;5060043;28;20171;-86
2021/06/15 08:41:11;;;;;;;1.38;0.40;;;;;;;35.28;17.24;98529.25;5063415;28;20384;-86
2021/06/15 08:43:37;;;;;;;1.38;0.60;;;;;;;33.56;18.53;98539.13;5071083;28;20387;-85
2021/06/15 08:46:04;;;;;;;1.38;0.50;;;;;;;34.70;18.28;98532.34;5066307;28;20039;-85
2021/06/15 08:48:34;;;;;;;1.05;0.40;;;;;;;35.34;17.17;98526.44;5061018;28;20027;-86
2021/06/15 08:51:01;;;;;;;1.08;0.40;;;;;;;35.10;17.70;98515.25;5069754;28;20396;-85
2021/06/15 08:53:29;;;;;;;0.47;0.30;;;;;;;35.81;16.83;98514.53;5059234;28;20029;-87
2021/06/15 08:55:59;;;;;;;0.50;0.28;;;;;;;35.49;17.91;98527.16;5057251;28;20719;-84
2021/06/15 08:58:28;;;;;;;;;;;;;;;35.80;16.71;98527.25;5058961;28;20109;-86
2021/06/15 09:00:54;;;;;;;2.30;0.40;;;;;;;36.16;16.30;98525.81;5066756;28;20404;-85
2021/06/15 09:03:20;;;;;;;4.18;0.25;;;;;;;35.88;17.13;98528.38;5058294;28;20041;-85
2021/06/15 09:05:46;;;;;;;1.50;0.60;;;;;;;35.68;17.63;98533.38;5059215;28;20036;-85
2021/06/15 09:08:13;;;;;;;2.25;0.50;;;;;;;35.62;16.65;98513.31;5057759;28;20047;-86
2021/06/15 09:10:45;;;;;;;0.70;0.43;;;;;;;35.67;16.29;98534.66;5059529;28;20037;-85
2021/06/15 09:13:38;;;;;;;0.30;0.22;;;;;;;34.62;17.16;98522.59;5056117;28;20035;-86
2021/06/15 09:16:24;;;;;;;0.88;0.40;;;;;;;34.30;17.26;98521.59;5062042;28;20124;-87
2021/06/15 09:18:52;;;;;;;0.50;0.40;;;;;;;34.00;18.11;98517.91;5062239;28;20025;-86
2021/06/15 09:21:30;;;;;;;0.43;0.30;;;;;;;34.49;18.77;98528.63;5061153;28;20036;-86
2021/06/15 09:24:08;;;;;;;2.58;0.40;;;;;;;34.17;19.20;98531.72;5076979;28;20032;-87
2021/06/15 09:27:07;;;;;;;0.90;0.30;;;;;;;32.33;19.42;98535.56;5080753;28;20663;-85
2021/06/15 09:29:51;;;;;;;0.68;0.55;;;;;;;33.14;19.55;98525.06;5074596;28;20033;-85
2021/06/15 09:32:29;;;;;;;0.50;0.30;;;;;;;35.00;16.98;98516.66;5056396;28;20608;-86
2021/06/15 09:34:58;;;;;;;1.17;0.50;;;;;;;36.21;17.19;98521.41;5058508;28;20029;-85
2021/06/15 09:37:33;;;;;;;2.95;0.50;;;;;;;36.22;17.66;98517.28;5057610;28;20061;-85
2021/06/15 09:40:03;;;;;;;0.60;0.30;;;;;;;36.17;17.21;98509.44;5058357;28;20128;-86
2021/06/15 09:42:29;;;;;;;0.43;0.40;;;;;;;34.45;18.17;98518.72;5057183;28;20091;-86
2021/06/15 09:44:55;;;;;;;0.50;0.30;;;;;;;35.91;16.16;98506.59;5055606;28;20044;-86
2021/06/15 09:47:23;;;;;;;0.70;0.20;;;;;;;35.89;17.29;98503.44;5059853;28;20128;-85
2021/06/15 09:49:50;;;;;;;0.55;0.43;;;;;;;35.99;16.61;98510.56;5069308;28;20031;-84
2021/06/15 09:52:26;;;;;;;0.98;0.40;;;;;;;36.03;16.90;98496.84;5056750;28;20028;-84
2021/06/15 09:54:56;;;;;;;0.43;0.40;;;;;;;35.41;17.85;98497.47;5061690;28;20053;-85
2021/06/15 09:57:45;;;;;;;0.60;0.52;;;;;;;33.64;19.48;98491.91;5055427;28;20028;-84
2021/06/15 10:00:11;;;;;;;1.65;0.50;;;;;;;34.31;17.63;98491.00;5067888;28;20495;-84
2021/06/15 10:02:59;;;;;;;1.38;0.85;;;;;;;35.64;17.00;98490.72;5059386;28;20480;-85
2021/06/15 10:05:37;;;;;;;1.13;0.50;;;;;;;37.05;15.77;98492.88;5058196;28;20044;-87
2021/06/15 10:08:07;;;;;;;1.58;0.50;;;;;;;36.99;15.85;98491.31;5062237;28;20060;-85
2021/06/15 10:10:41;;;;;;;0.40;0.38;;;;;;;36.03;17.32;98494.78;5059887;28;20468;-84
2021/06/15 10:13:08;;;;;;;0.30;0.30;;;;;;;34.73;17.47;98479.97;5064962;28;20029;-84
2021/06/15 10:15:36;;;;;;;1.25;0.40;;;;;;;34.34;18.66;98487.16;5056555;28;20035;-84
2021/06/15 10:18:03;;;;;;;0.55;0.30;;;;;;;34.35;18.77;98483.03;5067382;28;20033;-85
2021/06/15 10:20:32;;;;;;;0.68;0.50;;;;;;;34.35;18.97;98480.97;5054536;28;20106;-84
2021/06/15 10:23:00;;;;;;;1.30;0.50;;;;;;;33.75;18.78;98478.63;5060535;28;20063;-84
2021/06/15 10:25:29;;;;;;;0.70;0.50;;;;;;;33.95;19.15;98477.94;5059932;28;20039;-84
2021/06/15 10:27:56;;;;;;;0.38;0.32;;;;;;;35.12;17.27;98477.66;5059405;28;20057;-85
2021/06/15 10:30:37;;;;;;;0.40;0.30;;;;;;;36.07;18.29;98471.66;5057764;28;20040;-85
2021/06/15 10:33:16;;;;;;;0.55;0.30;;;;;;;37.34;17.09;98466.69;5060296;28;20440;-84
2021/06/15 10:35:52;;;;;;;1.05;0.43;;;;;;;37.88;16.40;98460.84;5062447;28;20496;-85
2021/06/15 10:38:29;;;;;;;3.17;0.60;;;;;;;37.84;16.91;98466.84;5058906;28;20614;-85
2021/06/15 10:41:01;;;;;;;0.98;0.32;;;;;;;36.47;16.55;98470.69;5065504;28;20033;-85
2021/06/15 10:43:42;;;;;;;0.28;0.28;;;;;;;37.67;16.81;98456.63;5056713;28;20024;-84
2021/06/15 10:46:18;;;;;;;0.43;0.43;;;;;;;37.64;15.77;98466.25;5061252;28;20446;-85
2021/06/15 10:48:47;;;;;;;1.27;0.10;;;;;;;37.72;15.77;98462.34;5064767;28;20106;-83
2021/06/15 10:51:25;;;;;;;3.50;0.50;;;;;;;37.19;15.18;98463.25;5064932;28;20071;-83
2021/06/15 10:53:53;;;;;;;0.57;0.40;;;;;;;36.67;16.08;98453.38;5061233;28;20063;-84
2021/06/15 10:56:23;;;;;;;0.60;0.60;;;;;;;37.11;15.79;98453.59;5057189;28;20029;-84
2021/06/15 10:58:59;;;;;;;2.43;0.43;;;;;;;37.85;16.38;98451.22;5066473;28;20037;-83
2021/06/15 11:01:27;;;;;;;0.85;0.43;;;;;;;38.83;15.40;98445.09;5065772;28;20686;-83
2021/06/15 11:03:53;;;;;;;0.55;0.28;;;;;;;39.49;14.44;98440.34;5059297;28;20511;-83
2021/06/15 11:06:21;;;;;;;0.30;0.30;;;;;;;39.99;14.35;98438.69;5059765;28;20036;-83
2021/06/15 11:09:16;;;;;;;0.30;0.30;;;;;;;39.16;14.77;98436.34;5059373;28;20028;-84
2021/06/15 11:12:06;;;;;;;0.43;0.22;;;;;;;39.25;14.73;98441.03;5059487;28;20040;-83
2021/06/15 11:14:32;;;;;;;0.73;0.50;;;;;;;38.96;14.75;98438.78;5054320;28;20041;-82
2021/06/15 11:17:00;;;;;;;2.13;1.00;;;;;;;38.60;16.36;98441.47;5055757;28;20102;-81
2021/06/15 11:19:30;;;;;;;0.85;0.30;;;;;;;38.87;14.59;98442.72;5064749;28;20028;-82
2021/06/15 11:22:01;;;;;;;0.63;0.47;;;;;;;38.23;15.07;98434.50;5058142;28;20028;-82
2021/06/15 11:24:34;;;;;;;1.08;0.50;;;;;;;38.34;16.25;98434.50;5055806;28;20040;-82
2021/06/15 11:27:03;;;;;;;1.30;0.40;;;;;;;38.63;14.87;98428.94;5054215;28;20108;-82
2021/06/15 11:29:38;;;;;;;0.40;0.35;;;;;;;38.92;14.60;98421.84;5053879;28;20497;-83
2021/06/15 11:32:18;;;;;;;1.10;0.30;;;;;;;39.18;13.87;98421.47;5056719;28;20116;-82
2021/06/15 11:35:04;;;;;;;0.65;0.40;;;;;;;39.51;14.47;98415.53;5058429;28;20024;-82
2021/06/15 11:37:37;;;;;;;1.27;0.50;;;;;;;38.21;15.61;98414.16;5050974;28;20040;-82
2021/06/15 11:40:09;;;;;;;0.88;0.38;;;;;;;38.23;15.45;98406.56;5060730;28;20033;-82
2021/06/15 11:42:36;;;;;;;0.68;0.30;;;;;;;38.58;14.52;98418.25;5066642;28;20032;-82
2021/06/15 11:45:18;;;;;;;1.85;0.50;;;;;;;38.93;14.67;98417.63;5086277;28;20035;-82
2021/06/15 11:47:51;;;;;;;0.88;0.50;;;;;;;38.95;15.00;98415.03;5056587;28;20496;-83
2021/06/15 11:50:25;;;;;;;0.45;0.45;;;;;;;37.42;17.17;98412.56;5059201;28;20120;-82